createdAt,value
2023-02-04T00:18:36.818Z,10.50
2023-02-04T00:21:05.153Z,10.60
2023-02-04T00:23:33.390Z,10.60
2023-02-04T00:26:02.245Z,10.70
2023-02-04T00:28:30.589Z,10.70
2023-02-04T00:30:58.852Z,10.70
2023-02-04T00:33:40.140Z,10.70
2023-02-04T00:36:08.867Z,10.70
2023-02-04T00:38:37.220Z,10.70
2023-02-04T00:41:07.276Z,10.70
2023-02-04T00:43:46.726Z,10.70
2023-02-04T00:46:15.805Z,10.60
2023-02-04T00:48:48.281Z,10.70
2023-02-04T00:51:17.462Z,10.70
2023-02-04T00:53:47.848Z,10.70
2023-02-04T00:56:16.476Z,10.70
2023-02-04T00:58:45.219Z,10.70
2023-02-04T01:01:16.569Z,10.70
2023-02-04T01:03:47.881Z,10.70
2023-02-04T01:06:17.138Z,10.80
2023-02-04T01:08:45.500Z,10.70
2023-02-04T01:11:14.192Z,10.70
2023-02-04T01:13:42.591Z,10.70
2023-02-04T01:16:11.203Z,10.70
2023-02-04T01:18:39.638Z,10.70
2023-02-04T01:21:09.302Z,10.70
2023-02-04T01:23:55.154Z,10.70
2023-02-04T01:26:35.583Z,10.60
2023-02-04T01:29:04.604Z,10.60
2023-02-04T01:31:34.266Z,10.60
2023-02-04T01:34:07.655Z,10.60
2023-02-04T01:36:37.704Z,10.50
2023-02-04T01:39:16.101Z,10.50
2023-02-04T01:41:45.736Z,10.50
2023-02-04T01:44:27.998Z,10.50
2023-02-04T01:46:56.924Z,10.50
2023-02-04T01:49:26.029Z,10.40
2023-02-04T01:51:56.481Z,10.40
2023-02-04T01:54:24.930Z,10.40
2023-02-04T01:56:55.432Z,10.40
2023-02-04T01:59:24.807Z,10.30
2023-02-04T02:01:57.752Z,10.40
2023-02-04T02:04:46.683Z,10.40
2023-02-04T02:07:55.414Z,10.40
2023-02-04T02:10:41.094Z,10.50
2023-02-04T02:13:19.954Z,10.40
2023-02-04T02:15:50.021Z,10.40
2023-02-04T02:18:38.836Z,10.50
2023-02-04T02:21:16.446Z,10.40
2023-02-04T02:24:05.229Z,10.30
2023-02-04T02:26:36.922Z,10.30
2023-02-04T02:29:28.225Z,10.40
2023-02-04T02:32:07.955Z,10.40
2023-02-04T02:35:07.896Z,10.40
2023-02-04T02:37:43.998Z,10.30
2023-02-04T02:40:31.522Z,10.20
2023-02-04T02:43:20.878Z,10.10
2023-02-04T02:46:01.824Z,10.20
2023-02-04T02:48:38.196Z,10.10
2023-02-04T02:51:54.836Z,10.10
2023-02-04T02:54:48.954Z,10.10
2023-02-04T02:57:55.696Z,10.20
2023-02-04T03:15:50.869Z,10.20
2023-02-04T03:18:25.086Z,10.10
2023-02-04T03:21:00.975Z,10.10
2023-02-04T03:23:39.612Z,10.10
2023-02-04T03:26:46.053Z,10.20
2023-02-04T03:29:39.359Z,10.10
2023-02-04T03:32:55.072Z,10.10
2023-02-04T03:38:49.946Z,10.10
2023-02-04T03:41:30.521Z,10.10
2023-02-04T03:44:08.392Z,10.10
2023-02-04T03:46:41.328Z,10.10
2023-02-04T03:49:26.584Z,10.10
2023-02-04T03:52:06.477Z,10.00
2023-02-04T03:54:46.921Z,10.00
2023-02-04T03:57:20.407Z,10.10
2023-02-04T03:59:51.990Z,10.00
2023-02-04T04:02:30.379Z,10.00
2023-02-04T04:05:03.400Z,10.00
2023-02-04T04:07:35.983Z,10.00
2023-02-04T04:10:25.397Z,10.00
2023-02-04T04:13:13.473Z,10.00
2023-02-04T04:15:53.573Z,10.00
2023-02-04T04:18:24.871Z,10.00
2023-02-04T04:20:55.645Z,9.90
2023-02-04T04:23:24.852Z,9.90
2023-02-04T04:25:58.742Z,9.90
2023-02-04T04:28:28.454Z,9.80
2023-02-04T04:30:57.984Z,10.00
2023-02-04T04:33:30.424Z,10.00
2023-02-04T04:36:01.129Z,9.90
2023-02-04T04:38:30.693Z,9.90
2023-02-04T04:41:01.531Z,9.90
2023-02-04T04:43:32.658Z,9.90
2023-02-04T04:46:02.395Z,10.00
2023-02-04T04:48:38.511Z,10.00
2023-02-04T04:51:32.533Z,9.90
2023-02-04T04:54:28.997Z,10.00
2023-02-04T04:57:02.444Z,10.00
2023-02-04T04:59:31.334Z,10.00
2023-02-04T05:04:43.474Z,10.10
2023-02-04T05:07:16.379Z,10.00
2023-02-04T05:14:24.821Z,10.10
2023-02-04T05:18:00.249Z,10.00
2023-02-04T05:21:27.804Z,10.00
2023-02-04T05:33:19.052Z,10.00
2023-02-04T05:36:13.456Z,10.00
2023-02-04T05:39:24.435Z,9.90
2023-02-04T05:41:56.315Z,9.90
2023-02-04T05:44:28.360Z,9.90
2023-02-04T05:47:24.644Z,9.90
2023-02-04T05:50:10.829Z,10.00
2023-02-04T05:53:03.111Z,10.00
2023-02-04T05:59:21.864Z,10.00
2023-02-04T06:02:09.184Z,10.00
2023-02-04T06:19:57.759Z,10.00
2023-02-04T06:22:54.713Z,9.90
2023-02-04T06:46:59.399Z,9.90
2023-02-04T06:52:52.317Z,10.00
2023-02-04T06:55:28.522Z,9.90
2023-02-04T07:10:31.681Z,9.80
2023-02-04T07:13:00.018Z,9.80
2023-02-04T07:15:28.331Z,9.80
2023-02-04T07:17:56.718Z,9.80
2023-02-04T07:20:24.975Z,9.80
2023-02-04T07:22:53.196Z,9.90
2023-02-04T07:25:21.603Z,9.90
2023-02-04T07:27:51.256Z,9.90
2023-02-04T07:30:19.778Z,9.90
2023-02-04T07:32:48.506Z,9.90
2023-02-04T07:35:17.699Z,9.90
2023-02-04T07:37:45.881Z,9.90
2023-02-04T07:40:14.723Z,9.90
2023-02-04T07:42:42.921Z,9.90
2023-02-04T07:45:12.670Z,9.90
2023-02-04T07:47:41.193Z,9.90
2023-02-04T07:50:09.904Z,9.90
2023-02-04T07:52:38.744Z,10.00
2023-02-04T07:55:08.002Z,10.00
2023-02-04T07:57:36.482Z,10.00
2023-02-04T08:00:05.340Z,10.00
2023-02-04T08:02:35.547Z,10.00
2023-02-04T08:05:03.789Z,10.00
2023-02-04T08:07:32.125Z,10.10
2023-02-04T08:10:00.631Z,10.10
2023-02-04T08:12:28.871Z,10.10
2023-02-04T08:14:57.100Z,10.10
2023-02-04T08:17:25.995Z,10.10
2023-02-04T08:19:56.656Z,10.10
2023-02-04T08:22:24.949Z,10.00
2023-02-04T08:24:53.287Z,10.00
2023-02-04T08:27:21.425Z,10.00
2023-02-04T08:29:50.008Z,10.00
2023-02-04T08:32:18.445Z,10.10
2023-02-04T08:34:48.706Z,10.10
2023-02-04T08:37:18.485Z,10.10
2023-02-04T08:39:49.160Z,10.10
2023-02-04T08:42:17.483Z,10.20
2023-02-04T08:44:45.776Z,10.20
2023-02-04T08:47:14.387Z,10.40
2023-02-04T08:49:42.642Z,10.40
2023-02-04T08:52:10.952Z,10.40
2023-02-04T08:54:40.837Z,10.30
2023-02-04T08:57:09.011Z,10.40
2023-02-04T08:59:37.252Z,10.40
2023-02-04T09:02:05.792Z,10.40
2023-02-04T09:04:34.641Z,10.50
2023-02-04T09:07:02.791Z,10.50
2023-02-04T09:09:31.298Z,10.50
2023-02-04T09:12:01.781Z,10.70
2023-02-04T09:14:30.111Z,10.70
2023-02-04T09:16:58.579Z,10.60
2023-02-04T09:19:26.848Z,10.60
2023-02-04T09:21:55.353Z,10.60
2023-02-04T09:24:24.324Z,10.60
2023-02-04T09:26:52.595Z,10.70
2023-02-04T09:29:22.373Z,10.70
2023-02-04T09:31:50.833Z,10.70
2023-02-04T09:34:19.142Z,10.80
2023-02-04T09:36:47.564Z,10.80
2023-02-04T09:39:15.859Z,10.80
2023-02-04T09:41:44.565Z,10.80
2023-02-04T09:44:17.953Z,10.90
2023-02-04T09:46:51.590Z,10.90
2023-02-04T09:49:19.928Z,11.00
2023-02-04T09:51:49.104Z,11.20
2023-02-04T09:54:20.353Z,11.20
2023-02-04T09:56:50.545Z,11.30
2023-02-04T09:59:21.846Z,11.30
2023-02-04T10:01:56.840Z,11.30
2023-02-04T10:04:25.818Z,11.50
2023-02-04T10:06:54.106Z,11.50
2023-02-04T10:09:22.488Z,11.60
2023-02-04T10:11:51.037Z,11.50
2023-02-04T10:14:23.031Z,11.30
2023-02-04T10:16:57.927Z,11.30
2023-02-04T10:19:29.978Z,11.40
2023-02-04T10:21:59.059Z,11.40
2023-02-04T10:24:30.737Z,11.50
2023-02-04T10:27:09.592Z,11.50
2023-02-04T10:29:38.126Z,11.50
2023-02-04T10:32:07.784Z,11.60
2023-02-04T10:34:40.149Z,11.50
2023-02-04T10:37:20.082Z,11.50
2023-02-04T10:39:49.367Z,11.60
2023-02-04T10:42:23.341Z,11.70
2023-02-04T10:44:52.377Z,11.70
2023-02-04T10:47:23.848Z,11.70
2023-02-04T10:49:57.177Z,11.70
2023-02-04T10:52:34.870Z,11.80
2023-02-04T10:55:04.645Z,11.90
2023-02-04T10:57:36.292Z,11.90
2023-02-04T11:00:08.090Z,12.00
2023-02-04T11:02:43.681Z,12.10
2023-02-04T11:05:15.563Z,12.30
2023-02-04T11:07:44.201Z,12.30
2023-02-04T11:10:15.927Z,12.30
2023-02-04T11:12:46.503Z,12.40
2023-02-04T11:15:50.195Z,12.50
2023-02-04T11:18:31.437Z,12.60
2023-02-04T11:21:00.589Z,12.70
2023-02-04T11:23:38.226Z,12.70
2023-02-04T11:26:10.147Z,12.80
2023-02-04T11:28:49.010Z,12.80
2023-02-04T11:31:30.507Z,12.90
2023-02-04T11:34:13.724Z,13.00
2023-02-04T11:37:12.935Z,13.00
2023-02-04T11:39:43.565Z,12.90
2023-02-04T11:42:25.060Z,13.00
2023-02-04T11:44:56.036Z,13.00
2023-02-04T11:47:26.690Z,13.10
2023-02-04T11:49:59.554Z,13.30
2023-02-04T11:52:27.901Z,13.40
2023-02-04T11:54:57.742Z,13.50
2023-02-04T11:57:26.543Z,13.50
2023-02-04T11:59:55.623Z,13.50
2023-02-04T12:02:26.122Z,13.60
2023-02-04T12:04:58.375Z,13.70
2023-02-04T12:07:28.765Z,13.70
2023-02-04T12:09:58.120Z,13.70
2023-02-04T12:12:29.105Z,13.80
2023-02-04T12:15:05.876Z,13.80
2023-02-04T12:17:34.120Z,13.70
2023-02-04T12:20:03.959Z,13.60
2023-02-04T12:22:32.230Z,13.60
2023-02-04T12:25:00.558Z,13.60
2023-02-04T12:27:28.886Z,13.60
2023-02-04T12:29:57.231Z,13.60
2023-02-04T12:32:25.536Z,13.70
2023-02-04T12:34:53.880Z,13.60
2023-02-04T12:37:23.546Z,13.40
2023-02-04T12:39:51.735Z,13.40
2023-02-04T12:42:20.067Z,13.40
2023-02-04T12:44:48.420Z,13.40
2023-02-04T12:47:16.677Z,13.30
2023-02-04T12:49:44.956Z,13.20
2023-02-04T12:52:13.215Z,13.20
2023-02-04T12:54:43.770Z,13.20
2023-02-04T12:57:12.164Z,13.20
2023-02-04T12:59:40.470Z,13.10
2023-02-04T13:02:11.042Z,12.90
2023-02-04T13:04:40.700Z,12.90
2023-02-04T13:07:09.111Z,12.90
2023-02-04T13:09:37.758Z,12.80
2023-02-04T13:12:07.743Z,12.90
2023-02-04T13:14:36.201Z,12.90
2023-02-04T13:17:04.385Z,12.80
2023-02-04T13:19:32.956Z,12.80
2023-02-04T13:22:01.927Z,12.80
2023-02-04T13:24:30.988Z,12.80
2023-02-04T13:26:59.279Z,12.80
2023-02-04T13:29:28.976Z,12.70
2023-02-04T13:31:57.424Z,12.70
2023-02-04T13:34:25.783Z,12.60
2023-02-04T13:36:54.183Z,12.70
2023-02-04T13:39:22.432Z,12.70
2023-02-04T13:41:51.299Z,12.70
2023-02-04T13:44:19.798Z,12.70
2023-02-04T13:46:49.489Z,12.60
2023-02-04T13:49:17.904Z,12.70
2023-02-04T13:51:46.343Z,12.70
2023-02-04T13:54:14.571Z,12.70
2023-02-04T13:56:43.313Z,12.80
2023-02-04T13:59:11.621Z,12.80
2023-02-04T14:01:39.813Z,12.80
2023-02-04T14:04:09.479Z,12.70
2023-02-04T14:06:43.521Z,12.70
2023-02-04T14:09:12.688Z,12.70
2023-02-04T14:11:41.408Z,12.70
2023-02-04T14:14:09.647Z,12.70
2023-02-04T14:16:38.197Z,12.80
2023-02-04T14:19:09.392Z,12.80
2023-02-04T14:21:37.583Z,12.70
2023-02-04T14:24:06.221Z,12.60
2023-02-04T14:26:34.495Z,12.60
2023-02-04T14:29:02.733Z,12.60
2023-02-04T14:31:31.237Z,12.60
2023-02-04T14:33:59.831Z,12.60
2023-02-04T14:36:29.436Z,12.50
2023-02-04T14:38:57.829Z,12.50
2023-02-04T14:41:26.469Z,12.60
2023-02-04T14:43:54.858Z,12.60
2023-02-04T14:46:23.460Z,12.50
2023-02-04T14:48:52.147Z,12.40
2023-02-04T14:51:20.631Z,12.40
2023-02-04T14:53:50.420Z,12.40
2023-02-04T14:56:19.421Z,12.40
2023-02-04T14:58:47.668Z,12.30
2023-02-04T15:01:16.024Z,12.40
2023-02-04T15:03:44.291Z,12.40
2023-02-04T15:06:12.549Z,12.20
2023-02-04T15:08:40.994Z,12.20
2023-02-04T15:11:10.745Z,12.10
2023-02-04T15:13:39.005Z,12.10
2023-02-04T15:16:07.716Z,12.10
2023-02-04T15:18:36.426Z,12.10
2023-02-04T15:21:07.507Z,12.20
2023-02-04T15:23:35.819Z,12.20
2023-02-04T15:26:04.275Z,12.20
2023-02-04T15:28:33.837Z,12.10
2023-02-04T15:31:02.292Z,12.10
2023-02-04T15:33:30.688Z,12.00
2023-02-04T15:35:58.909Z,12.00
2023-02-04T15:38:27.385Z,12.00
2023-02-04T15:40:55.757Z,12.10
2023-02-04T15:43:23.898Z,12.10
2023-02-04T15:45:53.613Z,12.00
2023-02-04T15:48:24.154Z,12.00
2023-02-04T15:50:52.779Z,12.00
2023-02-04T15:53:21.376Z,11.90
2023-02-04T15:55:49.950Z,12.00
2023-02-04T15:58:18.283Z,12.00
2023-02-04T16:00:46.804Z,11.90
2023-02-04T16:03:16.353Z,11.90
2023-02-04T16:05:44.515Z,11.90
2023-02-04T16:08:12.892Z,11.80
2023-02-04T16:10:41.244Z,11.80
2023-02-04T16:13:09.678Z,11.70
2023-02-04T16:15:38.411Z,11.70
2023-02-04T16:18:06.906Z,11.70
2023-02-04T16:20:36.568Z,11.70
2023-02-04T16:23:07.463Z,11.60
2023-02-04T16:25:35.878Z,11.60
2023-02-04T16:28:05.533Z,11.60
2023-02-04T16:30:34.174Z,11.60
2023-02-04T16:33:02.372Z,11.60
2023-02-04T16:35:32.746Z,11.60
2023-02-04T16:38:02.956Z,11.50
2023-02-04T16:40:31.469Z,11.50
2023-02-04T16:42:59.925Z,11.50
2023-02-04T16:45:28.502Z,11.40
2023-02-04T16:47:56.676Z,11.50
2023-02-04T16:50:25.005Z,11.40
2023-02-04T16:52:53.434Z,11.30
2023-02-04T16:55:23.166Z,11.40
2023-02-04T16:57:52.900Z,11.40
2023-02-04T17:00:22.060Z,11.20
2023-02-04T17:02:50.432Z,11.20
2023-02-04T17:05:18.868Z,11.10
2023-02-04T17:07:47.366Z,11.10
2023-02-04T17:10:15.749Z,11.00
2023-02-04T17:12:45.298Z,11.00
2023-02-04T17:15:14.025Z,11.00
2023-02-04T17:17:42.163Z,10.90
2023-02-04T17:20:11.588Z,10.90
2023-02-04T17:22:40.064Z,10.90
2023-02-04T17:25:08.705Z,10.90
2023-02-04T17:27:36.882Z,10.90
2023-02-04T17:30:07.932Z,10.80
2023-02-04T17:32:36.606Z,10.80
2023-02-04T17:35:04.913Z,10.80
2023-02-04T17:37:33.517Z,10.90
2023-02-04T17:40:01.712Z,10.80
2023-02-04T17:42:30.393Z,10.70
2023-02-04T17:44:58.805Z,10.70
2023-02-04T17:47:28.378Z,10.70
2023-02-04T17:49:56.691Z,10.60
2023-02-04T17:52:26.795Z,10.60
2023-02-04T17:54:55.134Z,10.70
2023-02-04T17:57:23.306Z,10.80
2023-02-04T17:59:51.918Z,10.70
2023-02-04T18:02:26.277Z,10.70
2023-02-04T18:05:00.226Z,10.60
2023-02-04T18:07:28.833Z,10.60
2023-02-04T18:10:08.676Z,10.50
2023-02-04T18:12:36.882Z,10.50
2023-02-04T18:15:28.047Z,10.50
2023-02-04T18:18:01.680Z,10.50
2023-02-04T18:20:31.427Z,10.40
2023-02-04T18:23:04.473Z,10.40
2023-02-04T18:25:33.962Z,10.50
2023-02-04T18:28:10.534Z,10.50
2023-02-04T18:30:39.451Z,10.50
2023-02-04T18:33:16.535Z,10.50
2023-02-04T18:35:50.523Z,10.40
2023-02-04T18:38:27.814Z,10.50
2023-02-04T18:41:03.746Z,10.50
2023-02-04T18:43:38.035Z,10.50
2023-02-04T18:46:23.808Z,10.40
2023-02-04T18:49:16.472Z,10.40
2023-02-04T18:51:46.785Z,10.30
2023-02-04T18:54:30.976Z,10.30
2023-02-04T18:57:32.206Z,10.30
2023-02-04T19:00:27.722Z,10.20
2023-02-04T19:02:58.916Z,10.20
2023-02-04T19:05:30.854Z,10.30
2023-02-04T19:08:22.127Z,10.30
2023-02-04T19:10:51.866Z,10.40
2023-02-04T19:13:23.562Z,10.30
2023-02-04T19:16:06.582Z,10.30
2023-02-04T19:18:38.978Z,10.50
2023-02-04T19:21:22.841Z,10.50
2023-02-04T19:23:55.964Z,10.30
2023-02-04T19:26:30.813Z,10.20
2023-02-04T19:28:59.745Z,10.20
2023-02-04T19:31:34.265Z,10.10
2023-02-04T19:34:13.970Z,10.10
2023-02-04T19:36:42.705Z,10.10
2023-02-04T19:39:30.859Z,10.10
2023-02-04T19:41:59.242Z,10.10
2023-02-04T19:44:43.582Z,10.00
2023-02-04T19:47:29.753Z,10.00
2023-02-04T19:50:24.642Z,10.00
2023-02-04T19:52:56.488Z,10.10
2023-02-04T19:55:32.537Z,10.10
2023-02-04T19:58:10.745Z,10.00
2023-02-04T20:00:46.925Z,10.00
2023-02-04T20:03:38.296Z,9.90
2023-02-04T20:06:27.802Z,9.90
2023-02-04T20:08:57.278Z,10.00
2023-02-04T20:11:45.233Z,10.00
2023-02-04T20:14:47.219Z,9.90
2023-02-04T20:17:38.569Z,9.90
2023-02-04T20:20:19.306Z,9.90
2023-02-04T20:22:50.312Z,9.90
2023-02-04T20:25:38.609Z,9.80
2023-02-04T20:28:37.138Z,9.80
2023-02-04T20:31:28.705Z,9.80
2023-02-04T20:33:59.671Z,9.90
2023-02-04T20:36:38.239Z,9.90
2023-02-04T20:39:34.061Z,10.00
2023-02-04T20:42:21.992Z,9.80
2023-02-04T20:44:52.067Z,9.90
2023-02-04T20:47:22.212Z,9.80
2023-02-04T20:49:55.303Z,9.70
2023-02-04T20:53:06.345Z,9.80
2023-02-04T20:55:36.173Z,9.80
2023-02-04T20:58:18.166Z,9.80
2023-02-04T21:00:52.529Z,9.80
2023-02-04T21:03:27.109Z,9.80
2023-02-04T21:05:57.398Z,9.80
2023-02-04T21:08:38.263Z,9.80
2023-02-04T21:11:07.291Z,9.80
2023-02-04T21:13:36.304Z,9.80
2023-02-04T21:16:06.703Z,9.80
2023-02-04T21:18:35.910Z,9.80
2023-02-04T21:21:07.262Z,9.80
2023-02-04T21:23:35.507Z,9.70
2023-02-04T21:26:04.086Z,9.70
2023-02-04T21:28:33.081Z,9.70
2023-02-04T21:31:01.815Z,9.70
2023-02-04T21:33:31.581Z,9.70
2023-02-04T21:36:00.021Z,9.70
2023-02-04T21:38:28.243Z,9.70
2023-02-04T21:40:56.684Z,9.70
2023-02-04T21:43:24.976Z,9.70
2023-02-04T21:45:53.169Z,9.70
2023-02-04T21:48:22.533Z,9.70
2023-02-04T21:50:52.360Z,9.70
2023-02-04T21:53:20.589Z,9.70
2023-02-04T21:55:49.284Z,9.60
2023-02-04T21:58:17.560Z,9.70
2023-02-04T22:00:45.794Z,9.60
2023-02-04T22:03:17.415Z,9.70
2023-02-04T22:05:46.758Z,9.60
2023-02-04T22:08:16.528Z,9.60
2023-02-04T22:10:45.053Z,9.60
2023-02-04T22:13:13.329Z,9.50
2023-02-04T22:15:41.658Z,9.40
2023-02-04T22:18:11.089Z,9.50
2023-02-04T22:20:39.702Z,9.40
2023-02-04T22:23:08.269Z,9.50
2023-02-04T22:25:38.082Z,9.40
2023-02-04T22:28:06.589Z,9.40
2023-02-04T22:30:35.116Z,9.40
2023-02-04T22:33:03.601Z,9.40
2023-02-04T22:35:35.325Z,9.40
2023-02-04T22:38:03.983Z,9.50
2023-02-04T22:40:32.520Z,9.50
2023-02-04T22:43:02.099Z,9.50
2023-02-04T22:45:30.506Z,9.50
2023-02-04T22:47:58.879Z,9.40
2023-02-04T22:50:27.070Z,9.40
2023-02-04T22:52:55.333Z,9.40
2023-02-04T22:55:23.893Z,9.40
2023-02-04T22:57:52.085Z,9.40
2023-02-04T23:00:21.972Z,9.40
2023-02-04T23:02:50.576Z,9.40
2023-02-04T23:05:22.032Z,9.30
2023-02-04T23:07:50.192Z,9.40
2023-02-04T23:10:18.688Z,9.40
2023-02-04T23:12:46.998Z,9.50
2023-02-04T23:15:15.651Z,9.50
2023-02-04T23:17:45.606Z,9.50
2023-02-04T23:20:13.976Z,9.50
2023-02-04T23:22:42.251Z,9.40
2023-02-04T23:25:11.689Z,9.30
2023-02-04T23:27:40.013Z,9.30
2023-02-04T23:30:10.588Z,9.30
2023-02-04T23:32:38.933Z,9.30
2023-02-04T23:35:09.136Z,9.30
2023-02-04T23:37:37.402Z,9.30
2023-02-04T23:40:07.197Z,9.30
2023-02-04T23:42:35.494Z,9.20
2023-02-04T23:45:03.813Z,9.30
2023-02-04T23:47:32.038Z,9.30
2023-02-04T23:50:00.267Z,9.20
2023-02-04T23:52:30.312Z,9.20
2023-02-04T23:54:58.680Z,9.30
2023-02-04T23:57:26.880Z,9.30
2023-02-04T23:59:55.155Z,9.20
